Time;durP1;ratioP1;P1;durP2;ratioP2;P2;SDS_P1;SDS_P2;PMS_P1;PMS_P2;Temp;Humidity;BMP_temperature;BMP_pressure;BME280_temperature;BME280_humidity;BME280_pressure;Samples;Min_cycle;Max_cycle;Signal;HPM_P1;HPM_P2
2021/11/28 00:01:09;;;;;;;;;;;3.40;51.80;;;;;;4345624;33;20025;-41
2021/11/28 00:03:35;;;;;;;;;;;3.40;52.20;;;;;;4345464;33;19982;-41
2021/11/28 00:06:04;;;;;;;;;;;3.40;52.40;;;;;;4345560;33;19986;-42
2021/11/28 00:16:10;;;;;;;;;;;3.20;54.20;;;;;;4345528;33;19966;-40
2021/11/28 00:18:36;;;;;;;;;;;3.30;54.20;;;;;;4345330;32;20030;-42
2021/11/28 00:21:04;;;;;;;;;;;3.30;54.30;;;;;;4366846;32;20013;-42
2021/11/28 00:23:30;;;;;;;;;;;3.30;54.20;;;;;;4374284;32;20391;-41
2021/11/28 00:25:56;;;;;;;;;;;3.40;54.30;;;;;;4374944;32;19966;-41
2021/11/28 00:28:22;;;;;;;;;;;3.40;54.20;;;;;;4374628;32;19962;-41
2021/11/28 00:30:48;;;;;;;;;;;3.40;54.30;;;;;;4375049;32;19992;-42
2021/11/28 00:33:15;;;;;;;;;;;3.40;54.30;;;;;;4375087;32;19982;-42
2021/11/28 00:35:41;;;;;;;;;;;3.40;54.50;;;;;;4360933;32;20000;-42
2021/11/28 00:38:07;;;;;;;;;;;3.40;54.50;;;;;;4374607;32;19978;-39
2021/11/28 00:40:33;;;;;;;;;;;3.40;54.70;;;;;;4348708;32;20452;-42
2021/11/28 00:43:00;;;;;;;;;;;3.40;55.00;;;;;;4374652;32;19966;-40
2021/11/28 00:45:26;;;;;;;;;;;3.30;55.30;;;;;;4374290;32;20438;-42
2021/11/28 00:47:52;;;;;;;;;;;3.30;55.40;;;;;;4374670;32;20435;-42
2021/11/28 00:52:47;;;;;;;;;;;3.30;55.80;;;;;;4374405;32;19974;-41
2021/11/28 00:55:14;;;;;;;;;;;3.40;56.10;;;;;;4374680;32;19977;-44
2021/11/28 00:57:40;;;;;;;;;;;3.30;56.50;;;;;;4375243;32;19966;-42
2021/11/28 01:00:08;;;;;;;;;;;3.30;56.80;;;;;;4374711;32;20041;-43
2021/11/28 01:02:35;;;;;;;;;;;3.30;56.90;;;;;;4374623;32;19992;-44
2021/11/28 01:05:01;;;;;;;;;;;3.30;57.10;;;;;;4374238;32;20094;-42
2021/11/28 01:07:27;;;;;;;;;;;3.30;57.20;;;;;;4374650;32;19969;-43
2021/11/28 01:09:54;;;;;;;;;;;3.30;57.30;;;;;;4374176;32;19986;-43
2021/11/28 01:12:20;;;;;;;;;;;3.30;57.40;;;;;;4374654;32;19988;-42
2021/11/28 01:14:46;;;;;;;;;;;3.30;57.30;;;;;;4360307;32;19958;-42
2021/11/28 01:17:12;;;;;;;;;;;3.20;57.40;;;;;;4374305;32;19963;-41
2021/11/28 01:19:39;;;;;;;;;;;3.20;57.40;;;;;;4371612;32;19959;-41
2021/11/28 01:22:09;;;;;;;;;;;3.20;57.60;;;;;;4359344;32;19982;-42
2021/11/28 01:24:36;;;;;;;;;;;3.20;57.90;;;;;;4345583;32;19986;-41
2021/11/28 01:27:04;;;;;;;;;;;3.20;58.00;;;;;;4358869;32;20386;-43
2021/11/28 01:29:30;;;;;;;;;;;3.20;58.20;;;;;;4359223;32;19963;-41
2021/11/28 01:31:58;;;;;;;;;;;3.20;58.40;;;;;;4358768;32;20041;-44
2021/11/28 01:34:25;;;;;;;;;;;3.20;58.60;;;;;;4359040;32;20123;-40
2021/11/28 01:36:52;;;;;;;;;;;3.20;58.70;;;;;;4345015;32;19990;-42
2021/11/28 01:39:19;;;;;;;;;;;3.20;58.80;;;;;;4345231;32;19998;-43
2021/11/28 01:41:45;;;;;;;;;;;3.20;58.90;;;;;;4358898;32;20427;-43
2021/11/28 01:44:11;;;;;;;;;;;3.20;59.00;;;;;;4358980;32;19978;-44
2021/11/28 01:46:37;;;;;;;;;;;3.20;58.90;;;;;;4358629;32;20006;-42
2021/11/28 01:49:05;;;;;;;;;;;3.30;59.00;;;;;;4358707;32;19962;-43
2021/11/28 01:51:33;;;;;;;;;;;3.30;59.10;;;;;;4358941;32;20130;-43
2021/11/28 01:53:59;;;;;;;;;;;3.30;59.10;;;;;;4358828;32;19978;-42
2021/11/28 01:56:25;;;;;;;;;;;3.30;59.10;;;;;;4358971;32;20487;-45
2021/11/28 01:58:52;;;;;;;;;;;3.40;59.20;;;;;;4358579;32;19989;-45
2021/11/28 02:01:19;;;;;;;;;;;3.40;59.20;;;;;;4358665;32;19998;-37
2021/11/28 02:03:45;;;;;;;;;;;3.40;59.20;;;;;;4358955;32;19966;-45
2021/11/28 02:06:14;;;;;;;;;;;3.40;59.30;;;;;;4358361;32;20512;-44
2021/11/28 02:08:40;;;;;;;;;;;3.40;59.30;;;;;;4345031;32;19978;-44
2021/11/28 02:11:06;;;;;;;;;;;3.40;59.30;;;;;;4358922;32;19962;-42
2021/11/28 02:13:33;;;;;;;;;;;3.30;59.30;;;;;;4358259;32;19989;-44
2021/11/28 02:15:59;;;;;;;;;;;3.40;59.40;;;;;;4358768;32;19968;-47
2021/11/28 02:18:25;;;;;;;;;;;3.40;59.40;;;;;;4358742;32;20078;-47
2021/11/28 02:20:57;;;;;;;;;;;3.40;59.50;;;;;;4368047;32;20051;-43
2021/11/28 02:23:23;;;;;;;;;;;3.30;59.60;;;;;;4373416;32;19981;-48
2021/11/28 02:25:51;;;;;;;;;;;3.30;59.60;;;;;;4373618;32;19998;-37
2021/11/28 02:28:17;;;;;;;;;;;3.30;59.70;;;;;;4359507;32;20429;-44
2021/11/28 02:30:44;;;;;;;;;;;3.30;59.70;;;;;;4373441;32;20523;-43
2021/11/28 02:33:10;;;;;;;;;;;3.30;59.80;;;;;;4373370;32;19974;-42
2021/11/28 02:35:37;;;;;;;;;;;3.30;59.70;;;;;;4373738;32;20040;-45
2021/11/28 02:38:04;;;;;;;;;;;3.40;59.70;;;;;;4374651;32;19989;-46
2021/11/28 02:40:31;;;;;;;;;;;3.40;59.50;;;;;;4356346;32;20005;-46
2021/11/28 02:42:57;;;;;;;;;;;3.40;59.40;;;;;;4355433;32;19966;-41
2021/11/28 02:45:24;;;;;;;;;;;3.40;59.30;;;;;;4355566;32;19997;-41
2021/11/28 02:47:51;;;;;;;;;;;3.50;59.30;;;;;;4355639;32;19967;-37
2021/11/28 02:50:18;;;;;;;;;;;3.50;59.20;;;;;;4343798;32;20056;-44
2021/11/28 02:52:53;;;;;;;;;;;3.50;59.10;;;;;;4355779;32;19962;-42
2021/11/28 02:55:43;;;;;;;;;;;3.50;59.00;;;;;;4355953;32;19981;-43
2021/11/28 02:58:10;;;;;;;;;;;3.60;59.10;;;;;;4350353;32;20106;-42
2021/11/28 03:00:37;;;;;;;;;;;3.60;58.70;;;;;;4355308;32;20531;-42
2021/11/28 03:03:04;;;;;;;;;;;3.60;58.60;;;;;;4343203;32;20054;-44
2021/11/28 03:05:30;;;;;;;;;;;3.60;58.50;;;;;;4355916;32;19989;-45
2021/11/28 03:07:56;;;;;;;;;;;3.60;58.20;;;;;;4355708;32;19994;-44
2021/11/28 03:10:32;;;;;;;;;;;3.60;58.20;;;;;;4355383;32;19994;-44
2021/11/28 03:12:59;;;;;;;;;;;3.60;58.10;;;;;;4355427;32;19970;-45
2021/11/28 03:15:28;;;;;;;;;;;3.60;57.90;;;;;;4355744;32;20145;-44
2021/11/28 03:17:54;;;;;;;;;;;3.60;57.90;;;;;;4363331;32;20125;-44
2021/11/28 03:20:21;;;;;;;;;;;3.60;57.90;;;;;;4366031;32;19994;-44
2021/11/28 03:22:50;;;;;;;;;;;3.60;57.80;;;;;;4357770;32;20051;-42
2021/11/28 03:25:18;;;;;;;;;;;3.70;57.90;;;;;;4357947;32;19970;-43
2021/11/28 03:27:44;;;;;;;;;;;3.70;57.90;;;;;;4357673;32;19982;-43
2021/11/28 03:30:12;;;;;;;;;;;3.70;57.90;;;;;;4357476;32;20421;-44
2021/11/28 03:32:38;;;;;;;;;;;3.70;57.70;;;;;;4358022;32;20023;-43
2021/11/28 03:35:05;;;;;;;;;;;3.80;57.80;;;;;;4357899;32;20067;-45
2021/11/28 03:37:31;;;;;;;;;;;3.80;57.60;;;;;;4357665;32;20531;-43
2021/11/28 03:39:58;;;;;;;;;;;3.80;57.50;;;;;;4357582;32;20027;-43
2021/11/28 03:42:24;;;;;;;;;;;3.90;57.50;;;;;;4357583;32;20399;-43
2021/11/28 03:44:51;;;;;;;;;;;3.90;57.30;;;;;;4358424;32;20052;-42
2021/11/28 03:47:17;;;;;;;;;;;3.90;57.20;;;;;;4358119;32;19971;-46
2021/11/28 03:49:44;;;;;;;;;;;4.00;57.20;;;;;;4357876;32;19975;-45
2021/11/28 03:52:10;;;;;;;;;;;4.00;57.00;;;;;;4344076;32;19958;-46
2021/11/28 03:54:36;;;;;;;;;;;4.00;56.90;;;;;;4357976;32;19994;-44
2021/11/28 03:57:03;;;;;;;;;;;4.00;56.80;;;;;;4357822;32;19970;-43
2021/11/28 03:59:29;;;;;;;;;;;4.00;56.80;;;;;;4359983;32;20073;-43
2021/11/28 04:01:55;;;;;;;;;;;4.10;56.80;;;;;;4360830;32;19963;-41
2021/11/28 04:04:22;;;;;;;;;;;4.10;56.60;;;;;;4346803;32;19970;-41
2021/11/28 04:06:48;;;;;;;;;;;4.10;56.60;;;;;;4346076;32;19990;-43
2021/11/28 04:09:14;;;;;;;;;;;4.10;56.50;;;;;;4360365;32;19962;-44
2021/11/28 04:11:41;;;;;;;;;;;4.20;56.60;;;;;;4360231;32;20050;-42
2021/11/28 04:14:07;;;;;;;;;;;4.20;56.50;;;;;;4360606;32;19965;-43
2021/11/28 04:16:33;;;;;;;;;;;4.20;56.20;;;;;;4359989;32;19970;-44
2021/11/28 04:19:00;;;;;;;;;;;4.30;56.00;;;;;;4360369;32;19981;-44
2021/11/28 04:21:27;;;;;;;;;;;4.30;55.90;;;;;;4332640;33;19994;-39
2021/11/28 04:23:53;;;;;;;;;;;4.30;55.80;;;;;;4345092;33;20004;-43
2021/11/28 04:26:20;;;;;;;;;;;4.30;55.70;;;;;;4345033;32;19974;-41
2021/11/28 04:28:46;;;;;;;;;;;4.30;55.60;;;;;;4344942;33;19997;-43
2021/11/28 04:31:13;;;;;;;;;;;4.40;55.60;;;;;;4345156;33;20019;-43
2021/11/28 04:33:39;;;;;;;;;;;4.30;55.20;;;;;;4331001;33;20060;-44
2021/11/28 04:36:06;;;;;;;;;;;4.40;55.10;;;;;;4344737;33;20201;-43
2021/11/28 04:38:32;;;;;;;;;;;4.30;54.90;;;;;;4344775;33;20460;-44
2021/11/28 04:40:58;;;;;;;;;;;4.40;54.90;;;;;;4344617;33;19978;-44
2021/11/28 04:43:24;;;;;;;;;;;4.40;54.90;;;;;;4331271;33;19974;-43
2021/11/28 04:45:50;;;;;;;;;;;4.40;54.60;;;;;;4344928;32;19995;-42
2021/11/28 04:48:17;;;;;;;;;;;4.40;54.50;;;;;;4344484;32;20383;-43
2021/11/28 04:50:43;;;;;;;;;;;4.40;54.50;;;;;;4344631;33;19963;-42
2021/11/28 04:53:09;;;;;;;;;;;4.40;54.50;;;;;;4344582;33;19971;-41
2021/11/28 04:55:35;;;;;;;;;;;4.50;54.50;;;;;;4344641;33;20757;-42
2021/11/28 04:58:02;;;;;;;;;;;4.50;54.50;;;;;;4344326;33;20040;-43
2021/11/28 05:00:28;;;;;;;;;;;4.60;54.30;;;;;;4344873;32;19965;-38
2021/11/28 05:02:55;;;;;;;;;;;4.60;54.90;;;;;;4344811;33;20030;-43
2021/11/28 05:05:22;;;;;;;;;;;4.60;54.10;;;;;;4344651;32;19973;-42
2021/11/28 05:07:48;;;;;;;;;;;4.60;54.10;;;;;;4344492;32;20475;-44
2021/11/28 05:10:14;;;;;;;;;;;4.70;54.10;;;;;;4344390;32;20075;-43
2021/11/28 05:12:41;;;;;;;;;;;4.70;54.20;;;;;;4344354;32;20001;-43
2021/11/28 05:15:07;;;;;;;;;;;4.70;54.20;;;;;;4344140;33;19967;-44
2021/11/28 05:17:34;;;;;;;;;;;4.80;54.00;;;;;;4344316;33;19970;-42
2021/11/28 05:20:00;;;;;;;;;;;4.80;53.90;;;;;;4334954;32;19988;-44
2021/11/28 05:22:27;;;;;;;;;;;4.90;54.00;;;;;;4359217;32;19963;-44
2021/11/28 05:24:53;;;;;;;;;;;5.00;53.80;;;;;;4359098;32;20080;-44
2021/11/28 05:27:19;;;;;;;;;;;5.00;53.80;;;;;;4358910;32;19991;-42
2021/11/28 05:29:46;;;;;;;;;;;5.00;53.90;;;;;;4358652;32;20448;-49
2021/11/28 05:32:12;;;;;;;;;;;5.00;54.10;;;;;;4359054;32;20065;-45
2021/11/28 05:34:38;;;;;;;;;;;5.00;54.30;;;;;;4359205;32;19973;-46
2021/11/28 05:37:04;;;;;;;;;;;5.00;54.30;;;;;;4345117;32;19970;-44
2021/11/28 05:39:31;;;;;;;;;;;5.00;54.30;;;;;;4358946;32;20057;-39
2021/11/28 05:41:57;;;;;;;;;;;5.00;54.40;;;;;;4359070;32;19985;-45
2021/11/28 05:44:24;;;;;;;;;;;5.00;54.50;;;;;;4358755;32;20396;-44
2021/11/28 05:46:50;;;;;;;;;;;4.90;54.60;;;;;;4358780;32;20005;-44
2021/11/28 05:49:17;;;;;;;;;;;4.90;54.60;;;;;;4358547;32;20472;-46
2021/11/28 05:51:43;;;;;;;;;;;4.90;54.70;;;;;;4344942;32;20057;-44
2021/11/28 05:54:09;;;;;;;;;;;5.00;54.60;;;;;;4326202;33;19979;-44
2021/11/28 05:56:35;;;;;;;;;;;4.90;54.50;;;;;;4326701;33;20047;-43
2021/11/28 05:59:02;;;;;;;;;;;4.90;54.30;;;;;;4314674;33;20069;-41
2021/11/28 06:01:28;;;;;;;;;;;4.90;55.00;;;;;;4326628;33;19998;-43
2021/11/28 06:03:54;;;;;;;;;;;4.90;54.30;;;;;;4326144;33;19977;-44
2021/11/28 06:06:20;;;;;;;;;;;5.00;54.40;;;;;;4326364;33;20469;-44
2021/11/28 06:08:46;;;;;;;;;;;5.00;54.10;;;;;;4326420;33;20030;-44
2021/11/28 06:11:13;;;;;;;;;;;5.00;54.00;;;;;;4326223;33;20144;-43
2021/11/28 06:13:39;;;;;;;;;;;5.00;53.80;;;;;;4313813;33;19967;-43
2021/11/28 06:16:06;;;;;;;;;;;5.00;53.80;;;;;;4326595;33;19994;-44
2021/11/28 06:18:32;;;;;;;;;;;5.00;53.80;;;;;;4326517;33;19990;-39
2021/11/28 06:20:58;;;;;;;;;;;5.00;53.70;;;;;;4325588;33;19983;-45
2021/11/28 06:23:25;;;;;;;;;;;5.00;53.70;;;;;;4326433;33;20076;-42
2021/11/28 06:25:51;;;;;;;;;;;4.90;53.80;;;;;;4351165;32;19967;-38
2021/11/28 06:28:17;;;;;;;;;;;4.90;54.00;;;;;;4357868;32;20387;-43
2021/11/28 06:30:45;;;;;;;;;;;4.90;54.10;;;;;;4358066;32;19965;-44
2021/11/28 06:33:12;;;;;;;;;;;4.90;54.20;;;;;;4358072;32;20570;-43
2021/11/28 06:35:38;;;;;;;;;;;5.00;54.30;;;;;;4356614;32;19966;-42
2021/11/28 06:38:04;;;;;;;;;;;5.00;54.30;;;;;;4358331;32;19982;-40
2021/11/28 06:40:30;;;;;;;;;;;5.00;54.20;;;;;;4358243;32;19982;-42
2021/11/28 06:42:57;;;;;;;;;;;5.10;53.90;;;;;;4357977;32;19981;-40
2021/11/28 06:45:23;;;;;;;;;;;5.10;53.80;;;;;;4357939;32;20426;-41
2021/11/28 06:47:49;;;;;;;;;;;5.10;53.80;;;;;;4358225;32;19994;-41
2021/11/28 06:50:15;;;;;;;;;;;5.10;53.60;;;;;;4358418;32;20063;-43
2021/11/28 06:52:41;;;;;;;;;;;5.10;53.50;;;;;;4354978;32;19978;-43
2021/11/28 06:55:08;;;;;;;;;;;5.10;53.50;;;;;;4355351;32;19968;-41
2021/11/28 06:57:34;;;;;;;;;;;5.10;53.60;;;;;;4356149;32;20067;-41
2021/11/28 07:00:03;;;;;;;;;;;5.10;53.60;;;;;;4343975;32;19970;-42
2021/11/28 07:02:48;;;;;;;;;;;5.10;53.90;;;;;;4355376;32;19967;-41
2021/11/28 07:05:14;;;;;;;;;;;5.10;54.40;;;;;;4355581;32;19985;-42
2021/11/28 07:07:40;;;;;;;;;;;5.00;55.80;;;;;;4355845;32;20053;-42
2021/11/28 07:10:06;;;;;;;;;;;4.90;55.40;;;;;;4355501;32;20071;-43
2021/11/28 07:12:33;;;;;;;;;;;4.90;55.90;;;;;;4355237;32;19973;-44
2021/11/28 07:14:59;;;;;;;;;;;4.80;56.30;;;;;;4355676;32;20038;-42
2021/11/28 07:17:25;;;;;;;;;;;4.70;56.50;;;;;;4355598;32;19970;-44
2021/11/28 07:19:51;;;;;;;;;;;4.70;56.80;;;;;;4346755;32;19971;-45
2021/11/28 07:22:18;;;;;;;;;;;4.60;56.90;;;;;;4339828;33;20414;-45
2021/11/28 07:24:44;;;;;;;;;;;4.60;57.00;;;;;;4327051;33;19975;-45
2021/11/28 07:27:10;;;;;;;;;;;4.60;57.30;;;;;;4328267;33;19978;-44
2021/11/28 07:29:36;;;;;;;;;;;4.50;57.40;;;;;;4327805;33;20097;-46
2021/11/28 07:32:03;;;;;;;;;;;4.50;57.70;;;;;;4328767;33;19974;-47
2021/11/28 07:34:29;;;;;;;;;;;4.40;57.80;;;;;;4330573;33;19994;-45
2021/11/28 07:36:55;;;;;;;;;;;4.50;57.90;;;;;;4331373;33;20452;-46
2021/11/28 07:39:22;;;;;;;;;;;4.50;58.00;;;;;;4330374;33;19963;-45
2021/11/28 07:41:48;;;;;;;;;;;4.50;58.20;;;;;;4330909;33;19978;-43
2021/11/28 07:44:14;;;;;;;;;;;4.50;58.40;;;;;;4330586;33;19966;-46
2021/11/28 07:46:40;;;;;;;;;;;4.50;58.60;;;;;;4330697;33;20391;-45
2021/11/28 07:49:07;;;;;;;;;;;4.50;58.70;;;;;;4331356;33;20002;-45
2021/11/28 07:51:33;;;;;;;;;;;4.50;58.90;;;;;;4330196;33;19967;-43
2021/11/28 07:54:01;;;;;;;;;;;4.50;59.10;;;;;;4328194;33;20479;-43
2021/11/28 07:56:29;;;;;;;;;;;4.60;59.40;;;;;;4330114;33;19979;-44
2021/11/28 07:58:55;;;;;;;;;;;4.60;59.50;;;;;;4330479;33;19971;-44
2021/11/28 08:01:21;;;;;;;;;;;4.60;59.50;;;;;;4330853;33;19990;-46
2021/11/28 08:03:48;;;;;;;;;;;4.60;59.50;;;;;;4330223;33;19970;-45
2021/11/28 08:06:14;;;;;;;;;;;4.60;59.60;;;;;;4331000;33;20005;-44
2021/11/28 08:08:41;;;;;;;;;;;4.60;59.50;;;;;;4330546;33;20502;-45
2021/11/28 08:11:07;;;;;;;;;;;4.60;59.60;;;;;;4330466;33;20053;-45
2021/11/28 08:13:33;;;;;;;;;;;4.70;59.60;;;;;;4330484;33;19975;-44
2021/11/28 08:15:59;;;;;;;;;;;4.70;59.50;;;;;;4329807;33;20043;-45
2021/11/28 08:18:26;;;;;;;;;;;4.70;59.30;;;;;;4329902;33;19989;-44
2021/11/28 08:20:52;;;;;;;;;;;4.70;59.30;;;;;;4345456;32;20513;-43
2021/11/28 08:23:18;;;;;;;;;;;4.70;59.40;;;;;;4374568;32;19974;-44
2021/11/28 08:25:44;;;;;;;;;;;4.70;59.40;;;;;;4374627;32;19999;-44
2021/11/28 08:28:10;;;;;;;;;;;4.60;59.40;;;;;;4329422;33;20102;-43
2021/11/28 08:30:37;;;;;;;;;;;4.60;59.70;;;;;;4329894;33;19974;-44
2021/11/28 08:33:04;;;;;;;;;;;4.60;59.80;;;;;;4342136;33;19959;-44
2021/11/28 08:35:30;;;;;;;;;;;4.60;59.90;;;;;;4342211;33;20062;-44
2021/11/28 08:37:57;;;;;;;;;;;4.60;60.10;;;;;;4341220;33;20580;-44
2021/11/28 08:40:24;;;;;;;;;;;4.60;60.30;;;;;;4342283;33;19981;-43
2021/11/28 08:42:50;;;;;;;;;;;4.60;60.50;;;;;;4341007;33;19998;-37
2021/11/28 08:45:16;;;;;;;;;;;4.60;60.70;;;;;;4341222;33;19993;-43
2021/11/28 08:47:43;;;;;;;;;;;4.60;60.80;;;;;;4330082;33;19963;-43
2021/11/28 08:50:10;;;;;;;;;;;4.60;60.80;;;;;;4329609;33;19970;-42
2021/11/28 08:52:36;;;;;;;;;;;4.60;60.90;;;;;;4342164;33;19970;-43
2021/11/28 08:55:03;;;;;;;;;;;4.60;60.80;;;;;;4342059;33;20400;-42
2021/11/28 08:57:29;;;;;;;;;;;4.60;60.80;;;;;;4341864;33;20133;-43
2021/11/28 08:59:55;;;;;;;;;;;4.50;60.80;;;;;;4368421;32;19962;-43
2021/11/28 09:02:22;;;;;;;;;;;4.60;60.70;;;;;;4360036;32;20025;-39
2021/11/28 09:04:48;;;;;;;;;;;4.60;60.70;;;;;;4374726;32;19986;-44
2021/11/28 09:07:14;;;;;;;;;;;4.50;60.70;;;;;;4374504;32;20378;-43
2021/11/28 09:09:40;;;;;;;;;;;4.50;60.70;;;;;;4374094;32;20373;-44
2021/11/28 09:12:07;;;;;;;;;;;4.50;60.70;;;;;;4373763;32;20058;-44
2021/11/28 09:14:33;;;;;;;;;;;4.50;60.80;;;;;;4347639;32;20381;-43
2021/11/28 09:17:00;;;;;;;;;;;4.50;61.50;;;;;;4374052;32;20402;-46
2021/11/28 09:19:33;;;;;;;;;;;4.50;60.80;;;;;;4373311;32;19976;-43
2021/11/28 09:22:02;;;;;;;;;;;4.50;60.80;;;;;;4358650;32;20048;-43
2021/11/28 09:24:37;;;;;;;;;;;4.50;60.80;;;;;;4359353;32;20510;-42
2021/11/28 09:27:13;;;;;;;;;;;4.50;60.70;;;;;;4359190;32;19970;-44
2021/11/28 09:29:44;;;;;;;;;;;4.50;60.50;;;;;;4358881;32;20456;-43
2021/11/28 09:32:12;;;;;;;;;;;4.60;60.40;;;;;;4358532;32;20068;-41
2021/11/28 09:34:38;;;;;;;;;;;4.60;60.30;;;;;;4345085;32;19963;-43
2021/11/28 09:37:05;;;;;;;;;;;4.60;60.20;;;;;;4358978;32;20045;-43
2021/11/28 09:39:31;;;;;;;;;;;4.70;60.10;;;;;;4358795;32;20390;-43
2021/11/28 09:42:03;;;;;;;;;;;4.70;59.90;;;;;;4358699;32;19973;-42
2021/11/28 09:44:31;;;;;;;;;;;4.70;59.70;;;;;;4358760;32;20651;-40
2021/11/28 09:46:58;;;;;;;;;;;4.70;59.70;;;;;;4344944;32;20035;-41
2021/11/28 09:49:26;;;;;;;;;;;4.80;59.80;;;;;;4358923;32;19959;-41
2021/11/28 09:51:53;;;;;;;;;;;4.80;59.70;;;;;;4344899;32;19970;-40
2021/11/28 09:54:19;;;;;;;;;;;4.80;59.70;;;;;;4358803;32;20022;-41
2021/11/28 09:56:46;;;;;;;;;;;4.70;59.70;;;;;;4344794;32;20515;-42
2021/11/28 09:59:12;;;;;;;;;;;4.70;59.90;;;;;;4344632;32;20050;-42
2021/11/28 10:01:39;;;;;;;;;;;4.70;59.90;;;;;;4344333;32;20038;-42
2021/11/28 10:04:06;;;;;;;;;;;4.70;60.00;;;;;;4344972;32;19963;-40
2021/11/28 10:06:32;;;;;;;;;;;4.70;60.10;;;;;;4358521;32;19963;-39
2021/11/28 10:09:00;;;;;;;;;;;4.70;60.30;;;;;;4357984;32;20378;-41
2021/11/28 10:11:43;;;;;;;;;;;4.60;60.40;;;;;;4344395;32;19970;-39
2021/11/28 10:14:11;;;;;;;;;;;4.70;60.50;;;;;;4344673;32;19954;-40
2021/11/28 10:16:37;;;;;;;;;;;4.70;60.70;;;;;;4358272;32;20570;-41
2021/11/28 10:19:05;;;;;;;;;;;4.70;60.70;;;;;;4358604;32;19962;-42
2021/11/28 10:21:34;;;;;;;;;;;4.70;60.60;;;;;;4330250;33;19958;-39
2021/11/28 10:24:10;;;;;;;;;;;4.70;60.60;;;;;;4342885;32;20449;-39
2021/11/28 10:26:57;;;;;;;;;;;4.70;60.30;;;;;;4343065;32;19994;-40
2021/11/28 10:29:30;;;;;;;;;;;4.70;60.20;;;;;;4343309;33;20049;-39
2021/11/28 10:31:58;;;;;;;;;;;4.70;60.20;;;;;;4343490;33;19959;-36
2021/11/28 10:34:25;;;;;;;;;;;4.70;60.30;;;;;;4343479;32;20069;-40
2021/11/28 10:37:05;;;;;;;;;;;4.70;60.20;;;;;;4343223;33;20395;-40
2021/11/28 10:39:54;;;;;;;;;;;4.70;60.10;;;;;;4343111;32;19967;-39
2021/11/28 10:42:22;;;;;;;;;;;4.70;60.10;;;;;;4343518;32;20007;-39
2021/11/28 10:45:01;;;;;;;;;;;4.70;60.20;;;;;;4343351;33;19990;-40
2021/11/28 10:47:41;;;;;;;;;;;4.80;60.30;;;;;;4343255;33;19982;-37
2021/11/28 10:50:18;;;;;;;;;;;4.80;60.30;;;;;;4343413;33;19974;-39
2021/11/28 10:52:48;;;;;;;;;;;4.70;60.10;;;;;;4329099;33;19962;-41
2021/11/28 10:55:28;;;;;;;;;;;4.70;60.20;;;;;;4342840;33;20407;-39
2021/11/28 10:58:20;;;;;;;;;;;4.70;60.20;;;;;;4342923;32;20393;-40
2021/11/28 11:00:46;;;;;;;;;;;4.70;60.40;;;;;;4342678;33;19998;-39
2021/11/28 11:03:13;;;;;;;;;;;4.70;60.60;;;;;;4343065;32;19958;-40
2021/11/28 11:05:40;;;;;;;;;;;4.70;60.60;;;;;;4343167;32;19966;-40
2021/11/28 11:08:06;;;;;;;;;;;4.70;60.60;;;;;;4345064;32;19994;-40
2021/11/28 11:10:35;;;;;;;;;;;4.80;60.60;;;;;;4346247;32;19967;-40
2021/11/28 11:13:05;;;;;;;;;;;4.70;60.40;;;;;;4346269;32;19998;-41
2021/11/28 11:15:33;;;;;;;;;;;4.70;60.60;;;;;;4345500;32;20009;-42
2021/11/28 11:18:00;;;;;;;;;;;4.70;60.60;;;;;;4346160;32;20410;-39
2021/11/28 11:20:29;;;;;;;;;;;4.70;60.70;;;;;;4339471;32;20370;-42
2021/11/28 11:22:55;;;;;;;;;;;4.80;60.80;;;;;;4361311;32;20371;-39
2021/11/28 11:25:30;;;;;;;;;;;4.80;60.80;;;;;;4328426;33;20064;-42
2021/11/28 11:28:06;;;;;;;;;;;4.80;60.70;;;;;;4317461;33;19967;-42
2021/11/28 11:30:33;;;;;;;;;;;4.80;60.70;;;;;;4328626;33;19962;-41
2021/11/28 11:33:02;;;;;;;;;;;4.80;60.80;;;;;;4316357;33;20010;-40
2021/11/28 11:35:31;;;;;;;;;;;4.80;60.80;;;;;;4317017;33;19994;-40
2021/11/28 11:38:04;;;;;;;;;;;4.80;60.80;;;;;;4318002;33;20416;-42
2021/11/28 11:40:30;;;;;;;;;;;4.80;60.80;;;;;;4329393;33;20059;-37
2021/11/28 11:42:57;;;;;;;;;;;4.80;60.80;;;;;;4329384;33;19971;-41
2021/11/28 11:45:25;;;;;;;;;;;4.80;60.90;;;;;;4329044;33;20459;-41
2021/11/28 11:47:52;;;;;;;;;;;4.80;61.00;;;;;;4328622;33;20005;-42
2021/11/28 11:50:20;;;;;;;;;;;4.80;61.00;;;;;;4316476;33;20488;-42
2021/11/28 11:52:46;;;;;;;;;;;4.80;61.10;;;;;;4328196;33;20060;-43
2021/11/28 11:55:15;;;;;;;;;;;4.70;61.10;;;;;;4328286;33;20009;-44
2021/11/28 11:58:02;;;;;;;;;;;4.70;61.20;;;;;;4327756;33;19971;-43
2021/11/28 12:00:44;;;;;;;;;;;4.70;61.40;;;;;;4316008;33;20022;-41
2021/11/28 12:03:14;;;;;;;;;;;4.70;61.50;;;;;;4336046;32;19974;-41
2021/11/28 12:05:41;;;;;;;;;;;4.70;61.60;;;;;;4327821;33;19983;-41
2021/11/28 12:08:13;;;;;;;;;;;4.70;61.70;;;;;;4328046;33;19986;-39
2021/11/28 12:10:46;;;;;;;;;;;4.70;61.90;;;;;;4328253;33;19970;-42
2021/11/28 12:13:14;;;;;;;;;;;4.70;61.90;;;;;;4327713;33;19994;-42
2021/11/28 12:15:49;;;;;;;;;;;4.70;62.00;;;;;;4328610;33;20049;-42
2021/11/28 12:18:40;;;;;;;;;;;4.70;62.10;;;;;;4327310;33;20053;-43
2021/11/28 12:21:32;;;;;;;;;;;4.70;62.20;;;;;;4327358;33;19959;-48
2021/11/28 12:24:11;;;;;;;;;;;4.70;62.30;;;;;;4327880;33;19975;-47
2021/11/28 12:26:41;;;;;;;;;;;4.60;62.40;;;;;;4315458;33;19991;-51
2021/11/28 12:29:10;;;;;;;;;;;4.70;62.70;;;;;;4327929;33;20048;-52
2021/11/28 12:31:38;;;;;;;;;;;4.70;62.70;;;;;;4328032;33;20038;-53
2021/11/28 12:34:08;;;;;;;;;;;4.70;62.90;;;;;;4327588;33;19979;-54
2021/11/28 12:36:41;;;;;;;;;;;4.70;63.00;;;;;;4327369;33;20002;-43
2021/11/28 12:39:18;;;;;;;;;;;4.70;63.00;;;;;;4327473;33;19986;-51
2021/11/28 12:44:22;;;;;;;;;;;4.70;63.00;;;;;;4358395;32;20058;-50
2021/11/28 12:46:56;;;;;;;;;;;4.70;63.10;;;;;;4359744;32;19984;-48
2021/11/28 12:49:33;;;;;;;;;;;4.70;63.20;;;;;;4359668;32;20050;-45
2021/11/28 12:52:14;;;;;;;;;;;4.70;63.20;;;;;;4359600;32;19965;-44
2021/11/28 12:54:42;;;;;;;;;;;4.80;63.30;;;;;;4359480;32;20417;-44
2021/11/28 12:57:23;;;;;;;;;;;4.80;63.40;;;;;;4359471;32;19993;-41
2021/11/28 13:00:10;;;;;;;;;;;4.80;63.40;;;;;;4359658;32;20073;-45
2021/11/28 13:02:53;;;;;;;;;;;4.80;63.30;;;;;;4359610;32;19974;-44
2021/11/28 13:05:35;;;;;;;;;;;4.90;63.40;;;;;;4359483;32;20442;-45
2021/11/28 13:08:04;;;;;;;;;;;4.90;63.40;;;;;;4359911;32;19962;-45
2021/11/28 13:10:47;;;;;;;;;;;4.90;63.50;;;;;;4359636;32;19978;-45
2021/11/28 13:13:14;;;;;;;;;;;4.90;63.50;;;;;;4346538;32;20411;-46
2021/11/28 13:15:44;;;;;;;;;;;4.90;63.40;;;;;;4359381;32;19973;-46
2021/11/28 13:18:12;;;;;;;;;;;4.90;63.40;;;;;;4359105;32;19977;-44
2021/11/28 13:20:39;;;;;;;;;;;4.90;63.40;;;;;;4367615;32;19966;-42
2021/11/28 13:23:08;;;;;;;;;;;4.90;63.40;;;;;;4374378;32;19959;-44
2021/11/28 13:25:37;;;;;;;;;;;4.90;63.40;;;;;;4374231;32;19970;-43
2021/11/28 13:28:04;;;;;;;;;;;5.00;63.50;;;;;;4374563;32;19992;-44
2021/11/28 13:30:34;;;;;;;;;;;5.00;63.50;;;;;;4373356;32;20417;-43
2021/11/28 13:33:31;;;;;;;;;;;5.00;63.50;;;;;;4373542;32;19961;-44
2021/11/28 13:36:06;;;;;;;;;;;5.00;63.40;;;;;;4370662;32;20085;-44
2021/11/28 13:38:44;;;;;;;;;;;5.00;63.40;;;;;;4373797;32;20381;-43
2021/11/28 13:41:25;;;;;;;;;;;5.00;63.50;;;;;;4374350;32;19977;-44
2021/11/28 13:43:57;;;;;;;;;;;5.00;63.50;;;;;;4359608;32;19958;-44
2021/11/28 13:46:38;;;;;;;;;;;5.10;63.50;;;;;;4373574;32;20371;-46
2021/11/28 13:49:17;;;;;;;;;;;5.10;63.50;;;;;;4374254;32;20374;-45
2021/11/28 13:51:49;;;;;;;;;;;5.10;63.40;;;;;;4373532;32;19973;-44
2021/11/28 13:54:31;;;;;;;;;;;5.10;63.40;;;;;;4373357;32;20515;-44
2021/11/28 13:57:04;;;;;;;;;;;5.10;63.40;;;;;;4373566;32;20000;-42
2021/11/28 13:59:31;;;;;;;;;;;5.10;63.30;;;;;;4373609;32;20033;-43
2021/11/28 14:02:24;;;;;;;;;;;5.20;63.40;;;;;;4373785;32;19981;-43
2021/11/28 14:04:54;;;;;;;;;;;5.20;63.40;;;;;;4370019;32;20390;-43
2021/11/28 14:07:44;;;;;;;;;;;5.20;63.30;;;;;;4373543;32;20061;-44
2021/11/28 14:10:12;;;;;;;;;;;5.20;63.20;;;;;;4373064;32;19985;-42
2021/11/28 14:12:40;;;;;;;;;;;5.20;63.20;;;;;;4373212;32;19970;-43
2021/11/28 14:15:26;;;;;;;;;;;5.20;63.20;;;;;;4360007;32;19969;-41
2021/11/28 14:17:58;;;;;;;;;;;5.30;63.30;;;;;;4373604;32;20025;-42
2021/11/28 14:20:29;;;;;;;;;;;5.30;63.30;;;;;;4365870;32;20035;-42
2021/11/28 14:22:56;;;;;;;;;;;5.30;63.30;;;;;;4358362;32;20034;-42
2021/11/28 14:25:40;;;;;;;;;;;5.30;63.30;;;;;;4358457;32;19965;-43
2021/11/28 14:28:13;;;;;;;;;;;5.40;63.30;;;;;;4358183;32;20085;-43
2021/11/28 14:30:55;;;;;;;;;;;5.30;63.30;;;;;;4358318;32;20421;-44
2021/11/28 14:33:29;;;;;;;;;;;5.30;63.40;;;;;;4358085;32;19970;-42
2021/11/28 14:36:15;;;;;;;;;;;5.30;63.40;;;;;;4358433;32;20105;-44
2021/11/28 14:38:48;;;;;;;;;;;5.30;63.40;;;;;;4357991;32;20487;-44
2021/11/28 14:41:34;;;;;;;;;;;5.30;63.50;;;;;;4357759;32;19958;-42
2021/11/28 14:44:01;;;;;;;;;;;5.30;63.60;;;;;;4357549;32;20070;-44
2021/11/28 14:46:37;;;;;;;;;;;5.40;63.60;;;;;;4358288;32;20091;-42
2021/11/28 14:49:04;;;;;;;;;;;5.40;63.60;;;;;;4358223;32;19962;-44
2021/11/28 14:51:55;;;;;;;;;;;5.30;63.60;;;;;;4358204;32;19968;-44
2021/11/28 14:54:29;;;;;;;;;;;5.30;63.50;;;;;;4357905;32;19966;-44